This is the latest recevied weather packets stored in our database for station/object WA2TQI. If no packets are shown the sender has not sent any weather packets the latest 1 day(s).
| Time | Temp. | Humidity | Pressure | Rain* | Wind** | Luminosity | Snow |
|---|---|---|---|---|---|---|---|
| 1778048375 | 18.89° C | 85% | 1011.6 hPa | 0 mm | 0.89 m/s, 217° | - | - |
| 1778048072 | 18.89° C | 85% | 1011.6 hPa | 0 mm | 0.89 m/s, 178° | - | - |
| 1778047770 | 18.89° C | 85% | 1011.6 hPa | 0 mm | 3.58 m/s, 209° | - | - |
| 1778047468 | 18.89° C | 85% | 1011.7 hPa | 0 mm | 2.24 m/s, 170° | - | - |
| 1778047164 | 18.89° C | 85% | 1011.4 hPa | 0 mm | 1.79 m/s, 173° | - | - |
| 1778046861 | 19.44° C | 84% | 1011.6 hPa | 0 mm | 1.34 m/s, 191° | - | - |
| 1778046558 | 19.44° C | 84% | 1011.6 hPa | 0 mm | 1.79 m/s, 200° | - | - |
| 1778046255 | 19.44° C | 84% | 1011.6 hPa | 0 mm | 0.89 m/s, 157° | - | - |
| 1778045951 | 19.44° C | 83% | 1011.8 hPa | 0 mm | 3.13 m/s, 249° | - | - |
| 1778045650 | 19.44° C | 83% | 1011.6 hPa | 0 mm | 3.58 m/s, 163° | - | - |
| 1778045348 | 19.44° C | 83% | 1012 hPa | 0 mm | 3.58 m/s, 194° | - | - |
| 1778045046 | 19.44° C | 83% | 1012 hPa | 0 mm | 0.89 m/s, 188° | - | - |
| 1778044743 | 19.44° C | 83% | 1011.9 hPa | 0 mm | 2.24 m/s, 219° | - | - |
| 1778044440 | 19.44° C | 82% | 1011.8 hPa | 0 mm | 1.34 m/s, 175° | - | - |
| 1778044137 | 19.44° C | 82% | 1011.8 hPa | 0 mm | 0.45 m/s, 145° | - | - |
| 1778043834 | 19.44° C | 82% | 1012.1 hPa | 0 mm | 1.79 m/s, 235° | - | - |
| 1778043531 | 19.44° C | 82% | 1012 hPa | 0 mm | 1.34 m/s, 144° | - | - |
| 1778043228 | 19.44° C | 82% | 1012 hPa | 0 mm | 3.13 m/s, 172° | - | - |
| 1778042925 | 19.44° C | 82% | 1012.1 hPa | 0 mm | 0.89 m/s, 194° | - | - |
| 1778042623 | 20° C | 81% | 1011.9 hPa | 0 mm | 1.79 m/s, 151° | - | - |
| 1778042319 | 19.44° C | 81% | 1012 hPa | 0 mm | 1.34 m/s, 161° | - | - |
| 1778042017 | 20° C | 81% | 1012 hPa | 0 mm | 1.79 m/s, 174° | - | - |
| 1778041715 | 20° C | 80% | 1012 hPa | 0 mm | 4.02 m/s, 136° | - | - |
| 1778041414 | 20° C | 80% | 1012.2 hPa | 0 mm | 0.89 m/s, 203° | - | - |
| 1778041112 | 19.44° C | 80% | 1012.1 hPa | 0 mm | 3.13 m/s, 169° | - | - |
* Rain latest hour (hover to see other rain measurements)
** Current wind speed in m/s (hover to see current wind gust speed)